LFLL/LYS METAR and TAF weather

Enter ICAO airport designator
Station Type Date Time Source
LFLL METAR 2021/05/11 01:00 UTC NOAA

LFLL 110100Z VRB02KT 8000 RA FEW003 FEW053TCU BKN063 11/10 Q1010 NOSIG


Station Type Date Time Source
LFLL Decoded METAR 2021/05/11 01:00 UTC NOAA

Lyon / Satolas, France (LFLL) 45-44N 005-05E 240M
May 10, 2021 - 09:00 PM EDT / 2021.05.11 0100 UTC
Wind: Variable at 2 MPH (2 KT):0
Visibility: 4 mile(s):0
Sky conditions: mostly cloudy
Weather: rain; Towering cumulus clouds observed
Temperature: 51 F (11 C)
Dew Point: 50 F (10 C)
Relative Humidity: 93%
Pressure (altimeter): 29.83 in. Hg (1010 hPa)
ob: LFLL 110100Z VRB02KT 8000 RA FEW003 FEW053TCU BKN063 11/10 Q1010 NOSIG
cycle: 1

Station Type Date Time Source
LFLL TAF 2021/05/11 01:07 UTC NOAA

TAF
AMD LFLL 110104Z 1101/1206 13005KT 7000 RA SCT006 BKN040
TEMPO 1101/1106 3000 +RA BKN006 SCT060TCU
FM110800 22006KT 9999 BKN018
BECMG 1110/1112 33012KT PROB40
TEMPO 1112/1116 SHRA SCT030TCU PROB30
TEMPO 1111/1116 33015G25KT TSRA SCT025CB
BECMG 1118/1120 CAVOK
BECMG 1122/1124 VRB03KT
BECMG 1204/1206 02007KT BKN030

Example: see airport list